LiveATC.Net - Listen to live air traffic control over the Internet!

ICAO: EYVI  IATA: VNO   Airport: Vilnius International Airport
City: Vilnius
Country: Lithuania   Continent: Europe
EYVI METAR Weather: EYVI 240120Z 36002KT CAVOK M05/M07 Q1007 R01/1///95 NOSIG
EYVI Flight Activity (FlightAware)
EYVI Twr/App/Misc
Feed Status: UP   Listeners: 1
Listen right in your browser - requires Flash (in browser, requires Flash)
Click here to listen with your own player (launches your MP3 player)
EYVI Twr/App/Misc Audio Archives
Emergency / GUARD121.500
FlyLAL, AirBaltic transit services131.500
FlyLAL, AirBaltic transit services131.600
FlyLAL, AirBaltic transit services131.900
Kaunas Approach (EYKA)124.200
Vilnius Approach120.700
Vilnius Control132.275
Vilnius Control133.300
Vilnius Control133.425
Vilnius FIS123.850
Vilnius Tower118.200
Zokniai A/G (mil)122.775


Unauthorized use prohibited. See Terms of Service

Find LiveATC Audio Streams

Airport/ARTCC Code

Frequency Search
(e.g., 124.400, 128.75)
Site-wide search

Browse LiveATC Feeds
LiveATC Coverage Map
Top 50 LiveATC Feeds
Bad Weather Areas

Offer a LiveATC Feed
Press Inquiries

LiveATC on iPhone
LiveATC on Android

Windows Phone
Windows 8/10

LiveATC Mobile
(Mobile browser)

ATC Audio Archives
Interesting Recordings

LiveATC Forums

Home Page
Make a Donation
Terms of Use
Privacy Policy

Canadian Air Freqs


FAA Airport Status
Nat'l Airspace Status
Arrival Demand Charts

Server Software By: